Aberdeen, California
Current Conditions -  °F | °C
As of 9:56 AM on Thursday 23 Oct 2014 (Local Time) from KBIH Reporting Station
Clear Clear  
Wind Chill: 12°   Ceiling: Unl
Heat Index: 12°   Visibility: 10mi
Dew Point: -3°   Wind: 0mph
Humidity: 35%   Direction: NA
Pressure: 30.14"   Gusts: NA
Location:  36.9237°N, 117.897°W
Report Text: KBIH 231656Z AUTO 00000KT 10SM CLR 12/M03 A3014 RMK AO2 SLP179 T01221028
Loading
Personal Weather Stations






























Interactive Weather Map
Tropical Storm Tracking
New forecast layout! Learn more

10-Day Weather Forecast

Advertisements
Track Severe Weather on mobile